sensor_id;sensor_type;location;lat;lon;timestamp;P1;durP1;ratioP1;P2;durP2;ratioP2
21822;SDS011;11074;48.596;9.238;2022-11-15T00:00:53;6.72;;;4.82;;
21822;SDS011;11074;48.596;9.238;2022-11-15T00:03:21;8.32;;;5.05;;
21822;SDS011;11074;48.596;9.238;2022-11-15T00:05:50;7.25;;;4.93;;
21822;SDS011;11074;48.596;9.238;2022-11-15T00:08:16;7.00;;;5.30;;
21822;SDS011;11074;48.596;9.238;2022-11-15T00:10:42;7.80;;;5.18;;
21822;SDS011;11074;48.596;9.238;2022-11-15T00:13:08;7.18;;;4.90;;
21822;SDS011;11074;48.596;9.238;2022-11-15T00:15:37;9.82;;;5.68;;
21822;SDS011;11074;48.596;9.238;2022-11-15T00:18:05;10.15;;;5.45;;
21822;SDS011;11074;48.596;9.238;2022-11-15T00:20:37;8.32;;;5.25;;
21822;SDS011;11074;48.596;9.238;2022-11-15T00:23:03;8.35;;;5.40;;
21822;SDS011;11074;48.596;9.238;2022-11-15T00:25:30;7.38;;;5.00;;
21822;SDS011;11074;48.596;9.238;2022-11-15T00:27:56;7.00;;;5.05;;
21822;SDS011;11074;48.596;9.238;2022-11-15T00:30:23;7.45;;;5.28;;
21822;SDS011;11074;48.596;9.238;2022-11-15T00:32:49;7.70;;;5.18;;
21822;SDS011;11074;48.596;9.238;2022-11-15T00:35:15;6.38;;;4.95;;
21822;SDS011;11074;48.596;9.238;2022-11-15T00:37:41;7.90;;;4.93;;
21822;SDS011;11074;48.596;9.238;2022-11-15T00:40:07;7.80;;;5.05;;
21822;SDS011;11074;48.596;9.238;2022-11-15T00:42:34;13.05;;;5.07;;
21822;SDS011;11074;48.596;9.238;2022-11-15T00:44:59;7.63;;;4.50;;
21822;SDS011;11074;48.596;9.238;2022-11-15T00:47:25;9.30;;;5.10;;
21822;SDS011;11074;48.596;9.238;2022-11-15T00:49:51;7.00;;;4.97;;
21822;SDS011;11074;48.596;9.238;2022-11-15T00:52:17;6.95;;;4.63;;
21822;SDS011;11074;48.596;9.238;2022-11-15T00:54:42;6.55;;;4.72;;
21822;SDS011;11074;48.596;9.238;2022-11-15T00:57:08;6.13;;;4.40;;
21822;SDS011;11074;48.596;9.238;2022-11-15T00:59:34;6.93;;;4.72;;
21822;SDS011;11074;48.596;9.238;2022-11-15T01:02:00;7.90;;;5.15;;
21822;SDS011;11074;48.596;9.238;2022-11-15T01:04:26;8.15;;;4.55;;
21822;SDS011;11074;48.596;9.238;2022-11-15T01:06:52;6.28;;;4.57;;
21822;SDS011;11074;48.596;9.238;2022-11-15T01:09:18;6.65;;;4.45;;
21822;SDS011;11074;48.596;9.238;2022-11-15T01:11:44;5.85;;;4.50;;
21822;SDS011;11074;48.596;9.238;2022-11-15T01:14:10;7.13;;;4.68;;
21822;SDS011;11074;48.596;9.238;2022-11-15T01:16:36;7.30;;;4.72;;
21822;SDS011;11074;48.596;9.238;2022-11-15T01:19:01;6.00;;;4.60;;
21822;SDS011;11074;48.596;9.238;2022-11-15T01:21:27;6.68;;;4.22;;
21822;SDS011;11074;48.596;9.238;2022-11-15T01:23:54;8.45;;;4.45;;
21822;SDS011;11074;48.596;9.238;2022-11-15T01:26:21;5.97;;;4.20;;
21822;SDS011;11074;48.596;9.238;2022-11-15T01:28:49;10.15;;;4.20;;
21822;SDS011;11074;48.596;9.238;2022-11-15T01:31:17;5.82;;;4.50;;
21822;SDS011;11074;48.596;9.238;2022-11-15T01:33:45;6.85;;;4.10;;
21822;SDS011;11074;48.596;9.238;2022-11-15T01:36:13;5.75;;;4.10;;
21822;SDS011;11074;48.596;9.238;2022-11-15T01:38:42;7.18;;;4.35;;
21822;SDS011;11074;48.596;9.238;2022-11-15T01:41:23;6.03;;;4.32;;
21822;SDS011;11074;48.596;9.238;2022-11-15T01:43:56;6.45;;;4.43;;
21822;SDS011;11074;48.596;9.238;2022-11-15T01:47:09;5.30;;;3.90;;
21822;SDS011;11074;48.596;9.238;2022-11-15T01:49:45;6.43;;;4.00;;
21822;SDS011;11074;48.596;9.238;2022-11-15T01:52:36;5.85;;;3.80;;
21822;SDS011;11074;48.596;9.238;2022-11-15T01:55:08;5.63;;;4.25;;
21822;SDS011;11074;48.596;9.238;2022-11-15T01:57:39;6.25;;;4.50;;
21822;SDS011;11074;48.596;9.238;2022-11-15T02:00:10;6.90;;;4.03;;
21822;SDS011;11074;48.596;9.238;2022-11-15T02:02:36;6.30;;;4.20;;
21822;SDS011;11074;48.596;9.238;2022-11-15T02:05:03;5.20;;;3.67;;
21822;SDS011;11074;48.596;9.238;2022-11-15T02:10:56;5.57;;;3.67;;
21822;SDS011;11074;48.596;9.238;2022-11-15T02:13:21;8.15;;;3.85;;
21822;SDS011;11074;48.596;9.238;2022-11-15T02:15:53;5.40;;;4.10;;
21822;SDS011;11074;48.596;9.238;2022-11-15T02:18:35;5.20;;;3.83;;
21822;SDS011;11074;48.596;9.238;2022-11-15T02:21:24;5.55;;;3.72;;
21822;SDS011;11074;48.596;9.238;2022-11-15T02:24:25;5.43;;;3.75;;
21822;SDS011;11074;48.596;9.238;2022-11-15T02:27:37;5.10;;;3.60;;
21822;SDS011;11074;48.596;9.238;2022-11-15T02:30:42;4.35;;;3.50;;
21822;SDS011;11074;48.596;9.238;2022-11-15T02:33:34;5.82;;;3.70;;
21822;SDS011;11074;48.596;9.238;2022-11-15T02:39:03;5.45;;;3.45;;
21822;SDS011;11074;48.596;9.238;2022-11-15T02:44:56;5.40;;;3.53;;
21822;SDS011;11074;48.596;9.238;2022-11-15T02:47:28;4.63;;;3.65;;
21822;SDS011;11074;48.596;9.238;2022-11-15T02:50:02;5.18;;;3.70;;
21822;SDS011;11074;48.596;9.238;2022-11-15T02:52:33;4.13;;;3.30;;
21822;SDS011;11074;48.596;9.238;2022-11-15T02:55:00;4.70;;;3.55;;
21822;SDS011;11074;48.596;9.238;2022-11-15T03:00:19;6.05;;;3.70;;
21822;SDS011;11074;48.596;9.238;2022-11-15T03:11:23;6.75;;;3.40;;
21822;SDS011;11074;48.596;9.238;2022-11-15T03:19:06;4.63;;;3.25;;
21822;SDS011;11074;48.596;9.238;2022-11-15T03:21:43;5.40;;;3.40;;
21822;SDS011;11074;48.596;9.238;2022-11-15T03:24:10;4.70;;;3.42;;
21822;SDS011;11074;48.596;9.238;2022-11-15T03:26:41;7.05;;;3.40;;
21822;SDS011;11074;48.596;9.238;2022-11-15T03:29:13;4.70;;;3.28;;
21822;SDS011;11074;48.596;9.238;2022-11-15T03:31:45;4.70;;;3.55;;
21822;SDS011;11074;48.596;9.238;2022-11-15T03:34:31;5.35;;;3.67;;
21822;SDS011;11074;48.596;9.238;2022-11-15T03:37:10;4.65;;;3.35;;
21822;SDS011;11074;48.596;9.238;2022-11-15T03:39:39;4.35;;;3.42;;
21822;SDS011;11074;48.596;9.238;2022-11-15T03:45:02;5.45;;;3.35;;
21822;SDS011;11074;48.596;9.238;2022-11-15T03:47:53;5.65;;;3.25;;
21822;SDS011;11074;48.596;9.238;2022-11-15T03:50:40;3.75;;;2.78;;
21822;SDS011;11074;48.596;9.238;2022-11-15T03:53:08;7.03;;;3.40;;
21822;SDS011;11074;48.596;9.238;2022-11-15T03:55:35;5.95;;;3.28;;
21822;SDS011;11074;48.596;9.238;2022-11-15T03:58:00;6.40;;;3.67;;
21822;SDS011;11074;48.596;9.238;2022-11-15T04:00:27;5.22;;;3.85;;
21822;SDS011;11074;48.596;9.238;2022-11-15T04:02:54;9.95;;;3.53;;
21822;SDS011;11074;48.596;9.238;2022-11-15T04:05:19;7.43;;;3.50;;
21822;SDS011;11074;48.596;9.238;2022-11-15T04:07:45;4.68;;;3.17;;
21822;SDS011;11074;48.596;9.238;2022-11-15T04:10:11;4.97;;;3.50;;
21822;SDS011;11074;48.596;9.238;2022-11-15T04:12:39;5.28;;;3.78;;
21822;SDS011;11074;48.596;9.238;2022-11-15T04:17:53;4.68;;;3.35;;
21822;SDS011;11074;48.596;9.238;2022-11-15T04:20:22;5.40;;;3.42;;
21822;SDS011;11074;48.596;9.238;2022-11-15T04:23:12;5.43;;;3.28;;
21822;SDS011;11074;48.596;9.238;2022-11-15T04:26:00;5.85;;;3.40;;
21822;SDS011;11074;48.596;9.238;2022-11-15T04:28:29;5.10;;;3.22;;
21822;SDS011;11074;48.596;9.238;2022-11-15T04:30:55;4.97;;;3.42;;
21822;SDS011;11074;48.596;9.238;2022-11-15T04:33:21;6.35;;;4.15;;
21822;SDS011;11074;48.596;9.238;2022-11-15T04:35:47;7.05;;;4.53;;
21822;SDS011;11074;48.596;9.238;2022-11-15T04:38:33;5.72;;;4.20;;
21822;SDS011;11074;48.596;9.238;2022-11-15T04:41:00;6.63;;;4.40;;
21822;SDS011;11074;48.596;9.238;2022-11-15T04:43:26;6.70;;;4.10;;
21822;SDS011;11074;48.596;9.238;2022-11-15T04:45:53;7.03;;;3.80;;
21822;SDS011;11074;48.596;9.238;2022-11-15T04:48:19;6.82;;;3.80;;
21822;SDS011;11074;48.596;9.238;2022-11-15T04:50:44;5.60;;;3.85;;
21822;SDS011;11074;48.596;9.238;2022-11-15T04:53:13;5.65;;;4.03;;
21822;SDS011;11074;48.596;9.238;2022-11-15T04:55:39;5.55;;;3.65;;
21822;SDS011;11074;48.596;9.238;2022-11-15T04:58:05;5.68;;;3.75;;
21822;SDS011;11074;48.596;9.238;2022-11-15T05:00:30;5.20;;;3.65;;
21822;SDS011;11074;48.596;9.238;2022-11-15T05:02:56;5.70;;;4.07;;
21822;SDS011;11074;48.596;9.238;2022-11-15T05:05:41;6.55;;;3.80;;
21822;SDS011;11074;48.596;9.238;2022-11-15T05:08:07;6.07;;;3.50;;
21822;SDS011;11074;48.596;9.238;2022-11-15T05:10:32;5.80;;;3.40;;
21822;SDS011;11074;48.596;9.238;2022-11-15T05:12:58;5.43;;;3.45;;
21822;SDS011;11074;48.596;9.238;2022-11-15T05:15:24;4.93;;;3.50;;
21822;SDS011;11074;48.596;9.238;2022-11-15T05:17:49;4.63;;;3.35;;
21822;SDS011;11074;48.596;9.238;2022-11-15T05:20:15;6.38;;;4.10;;
21822;SDS011;11074;48.596;9.238;2022-11-15T05:22:41;5.95;;;4.10;;
21822;SDS011;11074;48.596;9.238;2022-11-15T05:25:06;5.15;;;3.70;;
21822;SDS011;11074;48.596;9.238;2022-11-15T05:27:33;5.20;;;3.72;;
21822;SDS011;11074;48.596;9.238;2022-11-15T05:29:59;6.65;;;4.25;;
21822;SDS011;11074;48.596;9.238;2022-11-15T05:32:25;5.20;;;3.88;;
21822;SDS011;11074;48.596;9.238;2022-11-15T05:34:52;6.93;;;4.05;;
21822;SDS011;11074;48.596;9.238;2022-11-15T05:37:19;5.85;;;3.75;;
21822;SDS011;11074;48.596;9.238;2022-11-15T05:39:45;8.95;;;4.75;;
21822;SDS011;11074;48.596;9.238;2022-11-15T05:42:11;9.38;;;5.75;;
21822;SDS011;11074;48.596;9.238;2022-11-15T05:44:41;16.17;;;9.50;;
21822;SDS011;11074;48.596;9.238;2022-11-15T05:47:14;33.78;;;16.17;;
21822;SDS011;11074;48.596;9.238;2022-11-15T05:49:48;45.20;;;21.40;;
21822;SDS011;11074;48.596;9.238;2022-11-15T05:52:19;34.72;;;17.92;;
21822;SDS011;11074;48.596;9.238;2022-11-15T05:54:53;34.72;;;16.83;;
21822;SDS011;11074;48.596;9.238;2022-11-15T05:57:20;23.05;;;12.00;;
21822;SDS011;11074;48.596;9.238;2022-11-15T05:59:46;11.63;;;6.78;;
21822;SDS011;11074;48.596;9.238;2022-11-15T06:02:12;9.38;;;5.50;;
21822;SDS011;11074;48.596;9.238;2022-11-15T06:04:38;14.88;;;9.43;;
21822;SDS011;11074;48.596;9.238;2022-11-15T06:07:03;11.23;;;8.60;;
21822;SDS011;11074;48.596;9.238;2022-11-15T06:09:29;10.07;;;7.13;;
21822;SDS011;11074;48.596;9.238;2022-11-15T06:11:55;10.48;;;6.78;;
21822;SDS011;11074;48.596;9.238;2022-11-15T06:14:20;9.07;;;5.95;;
21822;SDS011;11074;48.596;9.238;2022-11-15T06:16:46;7.63;;;5.80;;
21822;SDS011;11074;48.596;9.238;2022-11-15T06:19:12;8.13;;;5.90;;
21822;SDS011;11074;48.596;9.238;2022-11-15T06:21:37;8.02;;;5.97;;
21822;SDS011;11074;48.596;9.238;2022-11-15T06:24:03;9.50;;;6.72;;
21822;SDS011;11074;48.596;9.238;2022-11-15T06:26:30;9.88;;;7.05;;
21822;SDS011;11074;48.596;9.238;2022-11-15T06:28:56;6.75;;;5.10;;
21822;SDS011;11074;48.596;9.238;2022-11-15T06:31:22;7.78;;;4.40;;
21822;SDS011;11074;48.596;9.238;2022-11-15T06:33:47;7.93;;;4.55;;
21822;SDS011;11074;48.596;9.238;2022-11-15T06:36:14;5.30;;;3.42;;
21822;SDS011;11074;48.596;9.238;2022-11-15T06:38:42;4.30;;;3.30;;
21822;SDS011;11074;48.596;9.238;2022-11-15T06:41:09;5.10;;;3.42;;
21822;SDS011;11074;48.596;9.238;2022-11-15T06:43:36;6.15;;;3.30;;
21822;SDS011;11074;48.596;9.238;2022-11-15T06:46:04;5.13;;;3.95;;
21822;SDS011;11074;48.596;9.238;2022-11-15T06:48:32;6.43;;;4.15;;
21822;SDS011;11074;48.596;9.238;2022-11-15T06:50:59;9.10;;;3.92;;
21822;SDS011;11074;48.596;9.238;2022-11-15T06:53:27;5.63;;;3.97;;
21822;SDS011;11074;48.596;9.238;2022-11-15T06:55:58;7.80;;;5.55;;
21822;SDS011;11074;48.596;9.238;2022-11-15T06:58:30;5.75;;;4.22;;
21822;SDS011;11074;48.596;9.238;2022-11-15T07:01:00;7.65;;;4.50;;
21822;SDS011;11074;48.596;9.238;2022-11-15T07:03:29;8.40;;;4.75;;
21822;SDS011;11074;48.596;9.238;2022-11-15T07:05:55;9.20;;;5.43;;
21822;SDS011;11074;48.596;9.238;2022-11-15T07:08:22;8.52;;;5.00;;
21822;SDS011;11074;48.596;9.238;2022-11-15T07:10:49;13.13;;;8.13;;
21822;SDS011;11074;48.596;9.238;2022-11-15T07:13:15;9.27;;;6.55;;
21822;SDS011;11074;48.596;9.238;2022-11-15T07:15:41;9.10;;;6.60;;
21822;SDS011;11074;48.596;9.238;2022-11-15T07:18:07;8.90;;;6.32;;
21822;SDS011;11074;48.596;9.238;2022-11-15T07:20:32;11.43;;;8.45;;
21822;SDS011;11074;48.596;9.238;2022-11-15T07:23:07;10.93;;;7.75;;
21822;SDS011;11074;48.596;9.238;2022-11-15T07:25:33;9.38;;;6.18;;
21822;SDS011;11074;48.596;9.238;2022-11-15T07:27:59;7.95;;;5.25;;
21822;SDS011;11074;48.596;9.238;2022-11-15T07:30:26;9.95;;;6.72;;
21822;SDS011;11074;48.596;9.238;2022-11-15T07:32:59;7.72;;;5.32;;
21822;SDS011;11074;48.596;9.238;2022-11-15T07:35:26;9.00;;;6.97;;
21822;SDS011;11074;48.596;9.238;2022-11-15T07:37:57;10.43;;;6.40;;
21822;SDS011;11074;48.596;9.238;2022-11-15T07:40:28;10.20;;;7.57;;
21822;SDS011;11074;48.596;9.238;2022-11-15T07:43:00;10.93;;;7.65;;
21822;SDS011;11074;48.596;9.238;2022-11-15T07:45:31;9.25;;;7.18;;
21822;SDS011;11074;48.596;9.238;2022-11-15T07:48:00;8.20;;;5.97;;
21822;SDS011;11074;48.596;9.238;2022-11-15T07:50:26;12.48;;;6.30;;
21822;SDS011;11074;48.596;9.238;2022-11-15T07:52:56;7.03;;;4.88;;
21822;SDS011;11074;48.596;9.238;2022-11-15T07:55:24;9.93;;;6.72;;
21822;SDS011;11074;48.596;9.238;2022-11-15T07:57:52;7.95;;;5.35;;
21822;SDS011;11074;48.596;9.238;2022-11-15T08:00:24;6.57;;;5.35;;
21822;SDS011;11074;48.596;9.238;2022-11-15T08:02:50;7.25;;;5.28;;
21822;SDS011;11074;48.596;9.238;2022-11-15T08:05:16;7.03;;;5.10;;
21822;SDS011;11074;48.596;9.238;2022-11-15T08:07:41;6.93;;;5.28;;
21822;SDS011;11074;48.596;9.238;2022-11-15T08:10:07;8.48;;;5.68;;
21822;SDS011;11074;48.596;9.238;2022-11-15T08:12:33;8.80;;;5.70;;
21822;SDS011;11074;48.596;9.238;2022-11-15T08:14:59;8.00;;;5.38;;
21822;SDS011;11074;48.596;9.238;2022-11-15T08:17:25;7.90;;;5.03;;
21822;SDS011;11074;48.596;9.238;2022-11-15T08:19:51;6.63;;;4.97;;
21822;SDS011;11074;48.596;9.238;2022-11-15T08:22:17;7.80;;;5.00;;
21822;SDS011;11074;48.596;9.238;2022-11-15T08:24:43;9.13;;;6.07;;
21822;SDS011;11074;48.596;9.238;2022-11-15T08:27:09;7.47;;;5.53;;
21822;SDS011;11074;48.596;9.238;2022-11-15T08:29:47;7.68;;;4.53;;
21822;SDS011;11074;48.596;9.238;2022-11-15T08:32:14;6.95;;;5.05;;
21822;SDS011;11074;48.596;9.238;2022-11-15T08:34:40;10.65;;;6.45;;
21822;SDS011;11074;48.596;9.238;2022-11-15T08:37:05;10.68;;;6.72;;
21822;SDS011;11074;48.596;9.238;2022-11-15T08:39:31;15.38;;;8.23;;
21822;SDS011;11074;48.596;9.238;2022-11-15T08:41:57;11.07;;;7.82;;
21822;SDS011;11074;48.596;9.238;2022-11-15T08:44:23;15.55;;;9.88;;
21822;SDS011;11074;48.596;9.238;2022-11-15T08:46:49;16.27;;;9.93;;
21822;SDS011;11074;48.596;9.238;2022-11-15T08:49:15;17.23;;;10.52;;
21822;SDS011;11074;48.596;9.238;2022-11-15T08:51:41;16.25;;;10.60;;
21822;SDS011;11074;48.596;9.238;2022-11-15T08:54:07;14.18;;;8.98;;
21822;SDS011;11074;48.596;9.238;2022-11-15T08:56:33;10.93;;;7.25;;
21822;SDS011;11074;48.596;9.238;2022-11-15T08:58:58;12.52;;;8.52;;
21822;SDS011;11074;48.596;9.238;2022-11-15T09:01:24;9.77;;;7.07;;
21822;SDS011;11074;48.596;9.238;2022-11-15T09:03:50;10.98;;;7.28;;
21822;SDS011;11074;48.596;9.238;2022-11-15T09:06:16;10.50;;;7.10;;
21822;SDS011;11074;48.596;9.238;2022-11-15T09:08:41;10.10;;;7.10;;
21822;SDS011;11074;48.596;9.238;2022-11-15T09:11:09;10.68;;;7.72;;
21822;SDS011;11074;48.596;9.238;2022-11-15T09:13:35;11.15;;;6.95;;
21822;SDS011;11074;48.596;9.238;2022-11-15T09:16:02;10.55;;;7.53;;
21822;SDS011;11074;48.596;9.238;2022-11-15T09:18:29;11.20;;;7.32;;
21822;SDS011;11074;48.596;9.238;2022-11-15T09:20:58;11.98;;;6.85;;
21822;SDS011;11074;48.596;9.238;2022-11-15T09:23:25;12.45;;;6.68;;
21822;SDS011;11074;48.596;9.238;2022-11-15T09:25:51;11.98;;;7.05;;
21822;SDS011;11074;48.596;9.238;2022-11-15T09:28:18;14.40;;;7.63;;
21822;SDS011;11074;48.596;9.238;2022-11-15T09:30:44;14.27;;;7.60;;
21822;SDS011;11074;48.596;9.238;2022-11-15T09:33:10;14.05;;;8.45;;
21822;SDS011;11074;48.596;9.238;2022-11-15T09:35:37;12.85;;;7.72;;
21822;SDS011;11074;48.596;9.238;2022-11-15T09:38:03;14.38;;;8.48;;
21822;SDS011;11074;48.596;9.238;2022-11-15T09:40:29;11.40;;;8.20;;
21822;SDS011;11074;48.596;9.238;2022-11-15T09:45:37;12.93;;;7.10;;
21822;SDS011;11074;48.596;9.238;2022-11-15T09:48:42;9.82;;;7.15;;
21822;SDS011;11074;48.596;9.238;2022-11-15T09:51:31;13.13;;;7.05;;
21822;SDS011;11074;48.596;9.238;2022-11-15T09:57:12;10.45;;;6.82;;
21822;SDS011;11074;48.596;9.238;2022-11-15T10:05:04;11.00;;;7.25;;
21822;SDS011;11074;48.596;9.238;2022-11-15T10:07:40;10.65;;;6.55;;
21822;SDS011;11074;48.596;9.238;2022-11-15T10:10:43;8.13;;;6.50;;
21822;SDS011;11074;48.596;9.238;2022-11-15T10:13:22;10.57;;;7.03;;
21822;SDS011;11074;48.596;9.238;2022-11-15T10:15:53;9.60;;;6.25;;
21822;SDS011;11074;48.596;9.238;2022-11-15T10:18:34;9.82;;;6.55;;
21822;SDS011;11074;48.596;9.238;2022-11-15T10:21:17;10.93;;;6.50;;
21822;SDS011;11074;48.596;9.238;2022-11-15T10:24:12;10.70;;;6.05;;
21822;SDS011;11074;48.596;9.238;2022-11-15T10:26:47;9.05;;;6.60;;
21822;SDS011;11074;48.596;9.238;2022-11-15T10:29:21;11.27;;;7.50;;
21822;SDS011;11074;48.596;9.238;2022-11-15T10:31:49;12.15;;;7.70;;
21822;SDS011;11074;48.596;9.238;2022-11-15T10:34:16;11.52;;;7.10;;
21822;SDS011;11074;48.596;9.238;2022-11-15T10:36:55;9.17;;;6.83;;
21822;SDS011;11074;48.596;9.238;2022-11-15T10:39:26;14.65;;;7.60;;
21822;SDS011;11074;48.596;9.238;2022-11-15T10:41:53;10.98;;;6.50;;
21822;SDS011;11074;48.596;9.238;2022-11-15T10:44:24;12.50;;;6.32;;
21822;SDS011;11074;48.596;9.238;2022-11-15T10:49:29;10.68;;;6.20;;
21822;SDS011;11074;48.596;9.238;2022-11-15T10:54:46;13.45;;;6.65;;
21822;SDS011;11074;48.596;9.238;2022-11-15T10:57:22;11.70;;;6.93;;
21822;SDS011;11074;48.596;9.238;2022-11-15T11:10:36;9.57;;;6.80;;
21822;SDS011;11074;48.596;9.238;2022-11-15T11:13:15;12.05;;;7.00;;
21822;SDS011;11074;48.596;9.238;2022-11-15T11:15:52;13.95;;;6.57;;
21822;SDS011;11074;48.596;9.238;2022-11-15T11:21:15;9.63;;;6.43;;
21822;SDS011;11074;48.596;9.238;2022-11-15T11:23:59;15.13;;;6.85;;
21822;SDS011;11074;48.596;9.238;2022-11-15T11:32:34;14.05;;;7.15;;
21822;SDS011;11074;48.596;9.238;2022-11-15T11:35:14;11.65;;;7.82;;
21822;SDS011;11074;48.596;9.238;2022-11-15T11:37:54;12.55;;;8.00;;
21822;SDS011;11074;48.596;9.238;2022-11-15T11:44:41;10.02;;;8.25;;
21822;SDS011;11074;48.596;9.238;2022-11-15T11:47:00;9.98;;;7.20;;
21822;SDS011;11074;48.596;9.238;2022-11-15T11:49:51;12.90;;;10.00;;
21822;SDS011;11074;48.596;9.238;2022-11-15T11:52:32;11.00;;;7.60;;
21822;SDS011;11074;48.596;9.238;2022-11-15T11:57:44;10.15;;;6.60;;
21822;SDS011;11074;48.596;9.238;2022-11-15T12:00:34;12.02;;;6.30;;
21822;SDS011;11074;48.596;9.238;2022-11-15T12:03:12;7.70;;;5.25;;
21822;SDS011;11074;48.596;9.238;2022-11-15T12:06:19;11.30;;;5.28;;
21822;SDS011;11074;48.596;9.238;2022-11-15T12:09:01;11.27;;;5.20;;
21822;SDS011;11074;48.596;9.238;2022-11-15T12:12:13;8.80;;;5.18;;
21822;SDS011;11074;48.596;9.238;2022-11-15T12:15:03;9.55;;;5.30;;
21822;SDS011;11074;48.596;9.238;2022-11-15T12:17:41;11.02;;;5.38;;
21822;SDS011;11074;48.596;9.238;2022-11-15T12:20:20;10.23;;;4.95;;
21822;SDS011;11074;48.596;9.238;2022-11-15T12:23:06;8.27;;;5.57;;
21822;SDS011;11074;48.596;9.238;2022-11-15T12:25:43;10.10;;;5.32;;
21822;SDS011;11074;48.596;9.238;2022-11-15T12:28:28;9.77;;;6.13;;
21822;SDS011;11074;48.596;9.238;2022-11-15T12:36:46;20.38;;;10.50;;
21822;SDS011;11074;48.596;9.238;2022-11-15T12:39:15;17.13;;;9.15;;
21822;SDS011;11074;48.596;9.238;2022-11-15T12:41:43;18.83;;;9.77;;
21822;SDS011;11074;48.596;9.238;2022-11-15T12:47:02;10.52;;;6.22;;
21822;SDS011;11074;48.596;9.238;2022-11-15T12:49:48;8.73;;;5.85;;
21822;SDS011;11074;48.596;9.238;2022-11-15T12:52:14;9.18;;;6.38;;
21822;SDS011;11074;48.596;9.238;2022-11-15T13:02:51;7.63;;;5.45;;
21822;SDS011;11074;48.596;9.238;2022-11-15T13:05:52;10.75;;;5.68;;
21822;SDS011;11074;48.596;9.238;2022-11-15T13:19:47;8.60;;;5.35;;
21822;SDS011;11074;48.596;9.238;2022-11-15T13:22:26;12.15;;;5.65;;
21822;SDS011;11074;48.596;9.238;2022-11-15T13:36:03;15.40;;;9.57;;
21822;SDS011;11074;48.596;9.238;2022-11-15T13:38:38;11.65;;;6.90;;
21822;SDS011;11074;48.596;9.238;2022-11-15T13:41:24;9.65;;;5.63;;
21822;SDS011;11074;48.596;9.238;2022-11-15T13:44:00;8.18;;;4.82;;
21822;SDS011;11074;48.596;9.238;2022-11-15T13:46:31;7.78;;;5.28;;
21822;SDS011;11074;48.596;9.238;2022-11-15T13:49:05;10.00;;;6.55;;
21822;SDS011;11074;48.596;9.238;2022-11-15T13:51:55;8.55;;;5.97;;
21822;SDS011;11074;48.596;9.238;2022-11-15T13:54:26;10.73;;;6.55;;
21822;SDS011;11074;48.596;9.238;2022-11-15T13:57:19;11.63;;;7.13;;
21822;SDS011;11074;48.596;9.238;2022-11-15T14:02:27;9.52;;;6.65;;
21822;SDS011;11074;48.596;9.238;2022-11-15T14:04:59;10.05;;;6.70;;
21822;SDS011;11074;48.596;9.238;2022-11-15T14:07:39;12.65;;;7.57;;
21822;SDS011;11074;48.596;9.238;2022-11-15T14:13:04;13.23;;;5.93;;
21822;SDS011;11074;48.596;9.238;2022-11-15T14:15:51;10.52;;;5.35;;
21822;SDS011;11074;48.596;9.238;2022-11-15T14:18:39;7.30;;;4.88;;
21822;SDS011;11074;48.596;9.238;2022-11-15T14:21:15;6.90;;;4.10;;
21822;SDS011;11074;48.596;9.238;2022-11-15T14:23:43;8.95;;;4.35;;
21822;SDS011;11074;48.596;9.238;2022-11-15T14:26:26;7.97;;;4.88;;
21822;SDS011;11074;48.596;9.238;2022-11-15T14:31:54;7.28;;;4.35;;
21822;SDS011;11074;48.596;9.238;2022-11-15T14:34:44;10.48;;;4.55;;
21822;SDS011;11074;48.596;9.238;2022-11-15T14:37:16;7.75;;;4.20;;
21822;SDS011;11074;48.596;9.238;2022-11-15T14:39:48;10.48;;;4.95;;
21822;SDS011;11074;48.596;9.238;2022-11-15T14:42:14;7.13;;;4.70;;
21822;SDS011;11074;48.596;9.238;2022-11-15T14:44:41;7.32;;;4.25;;
21822;SDS011;11074;48.596;9.238;2022-11-15T14:47:07;8.52;;;4.65;;
21822;SDS011;11074;48.596;9.238;2022-11-15T14:49:32;9.40;;;5.10;;
21822;SDS011;11074;48.596;9.238;2022-11-15T14:51:58;12.90;;;4.57;;
21822;SDS011;11074;48.596;9.238;2022-11-15T14:54:24;8.38;;;4.50;;
21822;SDS011;11074;48.596;9.238;2022-11-15T14:56:49;9.55;;;4.70;;
21822;SDS011;11074;48.596;9.238;2022-11-15T14:59:15;6.93;;;4.45;;
21822;SDS011;11074;48.596;9.238;2022-11-15T15:01:41;8.27;;;4.40;;
21822;SDS011;11074;48.596;9.238;2022-11-15T15:04:06;7.25;;;5.10;;
21822;SDS011;11074;48.596;9.238;2022-11-15T15:06:35;6.50;;;4.70;;
21822;SDS011;11074;48.596;9.238;2022-11-15T15:09:00;8.93;;;4.18;;
21822;SDS011;11074;48.596;9.238;2022-11-15T15:11:27;8.48;;;4.78;;
21822;SDS011;11074;48.596;9.238;2022-11-15T15:13:55;10.70;;;5.20;;
21822;SDS011;11074;48.596;9.238;2022-11-15T15:16:25;6.72;;;4.28;;
21822;SDS011;11074;48.596;9.238;2022-11-15T15:18:51;10.52;;;6.60;;
21822;SDS011;11074;48.596;9.238;2022-11-15T15:23:49;9.18;;;5.93;;
21822;SDS011;11074;48.596;9.238;2022-11-15T15:26:15;20.75;;;13.00;;
21822;SDS011;11074;48.596;9.238;2022-11-15T15:28:42;19.27;;;11.13;;
21822;SDS011;11074;48.596;9.238;2022-11-15T15:31:09;14.02;;;9.23;;
21822;SDS011;11074;48.596;9.238;2022-11-15T15:33:36;18.40;;;9.93;;
21822;SDS011;11074;48.596;9.238;2022-11-15T15:36:02;13.20;;;8.02;;
21822;SDS011;11074;48.596;9.238;2022-11-15T15:38:29;11.10;;;6.00;;
21822;SDS011;11074;48.596;9.238;2022-11-15T15:40:55;8.88;;;6.13;;
21822;SDS011;11074;48.596;9.238;2022-11-15T15:43:21;15.70;;;10.38;;
21822;SDS011;11074;48.596;9.238;2022-11-15T15:45:47;23.27;;;17.15;;
21822;SDS011;11074;48.596;9.238;2022-11-15T15:48:13;23.33;;;17.83;;
21822;SDS011;11074;48.596;9.238;2022-11-15T15:50:41;15.95;;;10.95;;
21822;SDS011;11074;48.596;9.238;2022-11-15T15:53:08;15.05;;;9.63;;
21822;SDS011;11074;48.596;9.238;2022-11-15T15:55:35;17.30;;;11.80;;
21822;SDS011;11074;48.596;9.238;2022-11-15T15:58:03;18.05;;;11.38;;
21822;SDS011;11074;48.596;9.238;2022-11-15T16:00:29;11.32;;;7.88;;
21822;SDS011;11074;48.596;9.238;2022-11-15T16:02:57;11.75;;;7.40;;
21822;SDS011;11074;48.596;9.238;2022-11-15T16:05:24;48.78;;;33.38;;
21822;SDS011;11074;48.596;9.238;2022-11-15T16:07:50;16.48;;;11.90;;
21822;SDS011;11074;48.596;9.238;2022-11-15T16:10:17;21.13;;;14.38;;
21822;SDS011;11074;48.596;9.238;2022-11-15T16:12:47;11.93;;;9.38;;
21822;SDS011;11074;48.596;9.238;2022-11-15T16:15:13;10.60;;;7.70;;
21822;SDS011;11074;48.596;9.238;2022-11-15T16:17:40;13.93;;;8.45;;
21822;SDS011;11074;48.596;9.238;2022-11-15T16:20:19;16.67;;;9.07;;
21822;SDS011;11074;48.596;9.238;2022-11-15T16:22:56;14.95;;;11.00;;
21822;SDS011;11074;48.596;9.238;2022-11-15T16:25:24;16.25;;;10.73;;
21822;SDS011;11074;48.596;9.238;2022-11-15T16:27:50;13.70;;;10.02;;
21822;SDS011;11074;48.596;9.238;2022-11-15T16:30:17;19.55;;;13.90;;
21822;SDS011;11074;48.596;9.238;2022-11-15T16:32:45;14.27;;;9.43;;
21822;SDS011;11074;48.596;9.238;2022-11-15T16:35:12;12.63;;;8.40;;
21822;SDS011;11074;48.596;9.238;2022-11-15T16:37:39;10.38;;;8.02;;
21822;SDS011;11074;48.596;9.238;2022-11-15T16:40:17;13.35;;;9.50;;
21822;SDS011;11074;48.596;9.238;2022-11-15T16:42:57;26.00;;;8.10;;
21822;SDS011;11074;48.596;9.238;2022-11-15T16:45:26;10.55;;;6.57;;
21822;SDS011;11074;48.596;9.238;2022-11-15T16:47:53;14.85;;;11.90;;
21822;SDS011;11074;48.596;9.238;2022-11-15T16:50:21;14.25;;;9.82;;
21822;SDS011;11074;48.596;9.238;2022-11-15T16:52:51;12.82;;;8.10;;
21822;SDS011;11074;48.596;9.238;2022-11-15T16:55:19;12.15;;;7.60;;
21822;SDS011;11074;48.596;9.238;2022-11-15T16:57:48;12.90;;;9.18;;
21822;SDS011;11074;48.596;9.238;2022-11-15T17:00:14;10.98;;;8.68;;
21822;SDS011;11074;48.596;9.238;2022-11-15T17:02:43;9.57;;;7.68;;
21822;SDS011;11074;48.596;9.238;2022-11-15T17:05:10;11.15;;;8.38;;
21822;SDS011;11074;48.596;9.238;2022-11-15T17:07:38;12.43;;;9.13;;